createdAt,value
2022-10-02T00:00:34.374Z,0.65
2022-10-02T00:03:17.618Z,0.47
2022-10-02T00:05:50.189Z,0.73
2022-10-02T00:08:24.939Z,0.25
2022-10-02T00:11:01.682Z,0.30
2022-10-02T00:13:33.891Z,0.25
2022-10-02T00:16:05.601Z,0.40
2022-10-02T00:18:37.182Z,0.35
2022-10-02T00:21:12.940Z,0.50
2022-10-02T00:23:49.495Z,0.35
2022-10-02T00:26:52.414Z,0.22
2022-10-02T00:29:29.242Z,0.32
2022-10-02T00:32:21.769Z,0.20
2022-10-02T00:34:57.044Z,0.65
2022-10-02T00:37:44.302Z,0.30
2022-10-02T00:40:14.833Z,0.20
2022-10-02T00:43:05.033Z,0.50
2022-10-02T00:46:13.904Z,0.20
2022-10-02T00:48:59.920Z,0.20
2022-10-02T00:51:53.710Z,0.40
2022-10-02T00:54:24.333Z,0.20
2022-10-02T00:57:29.795Z,0.10
2022-10-02T01:00:00.590Z,0.30
2022-10-02T01:02:59.374Z,0.60
2022-10-02T01:05:27.487Z,0.30
2022-10-02T01:07:57.269Z,0.30
2022-10-02T01:10:26.318Z,0.38
2022-10-02T01:12:56.433Z,0.30
2022-10-02T01:15:40.835Z,0.35
2022-10-02T01:18:12.831Z,0.40
2022-10-02T01:20:52.833Z,0.30
2022-10-02T01:23:33.536Z,0.30
2022-10-02T01:26:01.858Z,0.50
2022-10-02T01:28:30.132Z,0.20
2022-10-02T01:31:10.456Z,0.30
2022-10-02T01:33:42.456Z,0.38
2022-10-02T01:36:11.777Z,0.20
2022-10-02T01:38:40.970Z,0.30
2022-10-02T01:41:12.318Z,0.30
2022-10-02T01:43:50.514Z,0.25
2022-10-02T01:46:32.171Z,0.35
2022-10-02T01:49:40.810Z,0.17
2022-10-02T01:52:39.707Z,0.28
2022-10-02T01:55:17.000Z,0.10
2022-10-02T01:58:06.680Z,0.17
2022-10-02T02:00:58.421Z,0.10
2022-10-02T02:04:15.988Z,0.30
2022-10-02T02:06:55.528Z,0.00
2022-10-02T02:09:36.743Z,0.10
2022-10-02T02:12:13.007Z,0.17
2022-10-02T02:14:51.851Z,0.30
2022-10-02T02:17:28.774Z,0.10
2022-10-02T02:20:13.766Z,0.10
2022-10-02T02:22:48.844Z,0.10
2022-10-02T02:25:18.177Z,0.30
2022-10-02T02:27:57.319Z,0.10
2022-10-02T02:30:25.456Z,0.20
2022-10-02T02:33:06.283Z,0.10
2022-10-02T02:35:42.744Z,0.20
2022-10-02T02:38:24.980Z,0.20
2022-10-02T02:40:52.837Z,0.00
2022-10-02T02:43:35.820Z,0.15
2022-10-02T02:46:14.532Z,0.20
2022-10-02T02:48:48.632Z,0.17
2022-10-02T02:51:23.226Z,0.20
2022-10-02T02:54:01.090Z,0.08
2022-10-02T02:56:34.861Z,0.40
2022-10-02T02:59:10.526Z,0.30
2022-10-02T03:01:38.266Z,0.20
2022-10-02T03:04:06.097Z,0.10
2022-10-02T03:06:40.717Z,0.08
2022-10-02T03:09:20.332Z,0.17
2022-10-02T03:11:56.747Z,0.43
2022-10-02T03:14:42.610Z,0.17
2022-10-02T03:17:13.376Z,0.30
2022-10-02T03:19:57.002Z,0.52
2022-10-02T03:22:53.074Z,0.40
2022-10-02T03:25:50.293Z,0.30
2022-10-02T03:28:56.631Z,0.35
2022-10-02T03:31:28.568Z,0.13
2022-10-02T03:33:59.148Z,0.20
2022-10-02T03:36:27.391Z,0.57
2022-10-02T03:39:23.217Z,0.30
2022-10-02T03:41:46.784Z,0.50
2022-10-02T03:44:14.462Z,0.45
2022-10-02T03:46:42.397Z,0.50
2022-10-02T03:49:09.994Z,0.28
2022-10-02T03:51:37.639Z,0.32
2022-10-02T03:54:17.963Z,0.20
2022-10-02T03:56:57.892Z,0.10
2022-10-02T04:00:09.362Z,0.30
2022-10-02T04:02:49.592Z,0.30
2022-10-02T04:05:19.984Z,0.22
2022-10-02T04:07:52.939Z,0.45
2022-10-02T04:10:44.952Z,0.20
2022-10-02T04:13:27.569Z,0.30
2022-10-02T04:16:03.897Z,0.20
2022-10-02T04:18:52.960Z,0.10
2022-10-02T04:21:42.607Z,0.43
2022-10-02T04:24:18.969Z,0.85
2022-10-02T04:27:18.343Z,1.10
2022-10-02T04:29:53.017Z,0.57
2022-10-02T04:32:31.132Z,0.50
2022-10-02T04:34:59.891Z,0.55
2022-10-02T04:38:03.414Z,0.50
2022-10-02T04:40:50.227Z,0.80
2022-10-02T04:43:32.741Z,0.80
2022-10-02T04:46:03.274Z,1.00
2022-10-02T04:48:55.899Z,0.22
2022-10-02T04:51:26.528Z,0.50
2022-10-02T04:54:36.861Z,2.20
2022-10-02T04:57:21.160Z,0.28
2022-10-02T04:59:58.451Z,0.63
2022-10-02T05:02:40.659Z,5.90
2022-10-02T05:05:33.294Z,3.08
2022-10-02T05:08:09.808Z,1.30
2022-10-02T05:10:54.674Z,4.22
2022-10-02T05:13:30.922Z,3.65
2022-10-02T05:16:36.543Z,3.53
2022-10-02T05:19:26.736Z,0.88
2022-10-02T05:22:21.480Z,4.60
2022-10-02T05:25:04.362Z,5.85
2022-10-02T05:28:16.839Z,2.35
2022-10-02T05:30:55.150Z,1.13
2022-10-02T05:34:04.027Z,2.38
2022-10-02T05:36:38.509Z,0.95
2022-10-02T05:39:28.569Z,0.73
2022-10-02T05:42:14.243Z,1.67
2022-10-02T05:45:00.993Z,1.40
2022-10-02T05:47:37.322Z,2.28
2022-10-02T05:50:27.472Z,2.05
2022-10-02T05:53:30.236Z,1.58
2022-10-02T05:56:09.672Z,2.63
2022-10-02T05:58:48.109Z,1.58
2022-10-02T06:01:47.542Z,1.98
2022-10-02T06:04:33.947Z,1.67
2022-10-02T06:07:06.962Z,2.15
2022-10-02T06:09:48.182Z,1.85
2022-10-02T06:12:59.822Z,1.60
2022-10-02T06:15:39.950Z,2.40
2022-10-02T06:18:22.470Z,2.30
2022-10-02T06:21:03.284Z,3.17
2022-10-02T06:23:41.320Z,2.78
2022-10-02T06:27:02.451Z,5.28
2022-10-02T06:34:04.811Z,4.45
2022-10-02T06:36:58.338Z,2.38
2022-10-02T06:39:54.009Z,4.20
2022-10-02T06:42:53.931Z,3.03
2022-10-02T06:45:24.507Z,1.02
2022-10-02T06:48:29.712Z,1.10
2022-10-02T06:51:35.268Z,1.77
2022-10-02T06:54:05.873Z,1.40
2022-10-02T06:56:59.298Z,1.05
2022-10-02T06:59:38.670Z,0.82
2022-10-02T07:02:27.727Z,0.70
2022-10-02T07:05:29.225Z,0.98
2022-10-02T07:08:42.361Z,0.93
2022-10-02T07:11:36.046Z,1.10
2022-10-02T07:14:30.879Z,1.38
2022-10-02T07:17:25.541Z,1.50
2022-10-02T07:20:15.671Z,1.58
2022-10-02T07:23:10.157Z,0.80
2022-10-02T07:26:15.640Z,0.90
2022-10-02T07:29:02.164Z,0.90
2022-10-02T07:31:32.575Z,0.90
2022-10-02T07:34:13.136Z,0.60
2022-10-02T07:36:55.846Z,1.88
2022-10-02T07:39:54.658Z,1.05
2022-10-02T07:43:03.972Z,0.90
2022-10-02T07:45:42.197Z,1.15
2022-10-02T07:48:25.160Z,0.73
2022-10-02T07:50:52.836Z,1.20
2022-10-02T07:53:41.324Z,0.63
2022-10-02T07:56:20.023Z,0.60
2022-10-02T07:58:54.837Z,1.10
2022-10-02T08:01:30.875Z,1.20
2022-10-02T08:04:10.812Z,0.88
2022-10-02T08:06:39.163Z,0.90
2022-10-02T08:09:14.233Z,1.00
2022-10-02T08:11:51.115Z,1.13
2022-10-02T08:14:38.331Z,0.70
2022-10-02T08:17:30.386Z,1.08
2022-10-02T08:20:06.575Z,1.15
2022-10-02T08:22:39.155Z,1.05
2022-10-02T08:25:25.563Z,1.02
2022-10-02T08:30:53.852Z,0.93
2022-10-02T08:33:23.121Z,0.77
2022-10-02T08:36:19.945Z,1.10
2022-10-02T08:38:54.447Z,1.67
2022-10-02T08:41:59.526Z,1.20
2022-10-02T08:45:08.078Z,2.00
2022-10-02T08:47:59.818Z,1.33
2022-10-02T08:50:59.316Z,1.13
2022-10-02T08:53:50.798Z,1.17
2022-10-02T08:56:32.245Z,1.23
2022-10-02T08:59:37.619Z,1.25
2022-10-02T09:02:27.654Z,1.70
2022-10-02T09:05:09.716Z,1.73
2022-10-02T09:07:53.968Z,1.27
2022-10-02T09:10:45.962Z,1.25
2022-10-02T09:13:35.477Z,1.30
2022-10-02T09:16:30.262Z,0.75
2022-10-02T09:19:04.503Z,1.40
2022-10-02T09:21:41.670Z,1.38
2022-10-02T09:24:41.075Z,1.30
2022-10-02T09:27:27.745Z,1.08
2022-10-02T09:30:05.180Z,1.23
2022-10-02T09:32:59.116Z,1.23
2022-10-02T09:35:40.667Z,0.90
2022-10-02T09:38:45.971Z,1.15
2022-10-02T09:41:49.656Z,1.00
2022-10-02T09:44:44.871Z,1.17
2022-10-02T09:47:40.599Z,1.05
2022-10-02T09:50:44.482Z,1.00
2022-10-02T09:53:49.840Z,1.15
2022-10-02T09:56:21.674Z,0.63
2022-10-02T09:59:07.838Z,0.55
2022-10-02T10:04:33.696Z,0.10
2022-10-02T10:07:22.439Z,0.13
2022-10-02T10:10:02.171Z,0.08
2022-10-02T10:12:49.547Z,0.10
2022-10-02T10:15:40.606Z,0.20
2022-10-02T10:18:53.120Z,0.15
2022-10-02T10:21:30.359Z,0.25
2022-10-02T10:24:19.625Z,0.10
2022-10-02T10:26:47.242Z,0.43
2022-10-02T10:29:40.077Z,0.28
2022-10-02T10:32:45.908Z,0.20
2022-10-02T10:35:38.958Z,0.40
2022-10-02T10:38:41.891Z,0.40
2022-10-02T10:41:22.667Z,0.20
2022-10-02T10:44:15.114Z,0.65
2022-10-02T10:47:18.265Z,0.08
2022-10-02T10:50:14.260Z,0.40
2022-10-02T10:53:08.034Z,0.28
2022-10-02T10:56:17.719Z,0.47
2022-10-02T10:59:25.855Z,0.20
2022-10-02T11:04:35.310Z,0.30
2022-10-02T11:07:21.720Z,0.10
2022-10-02T11:10:19.121Z,0.00
2022-10-02T11:13:07.652Z,0.35
2022-10-02T11:16:07.471Z,0.20
2022-10-02T11:19:05.967Z,0.22
2022-10-02T11:21:59.154Z,0.20
2022-10-02T11:24:38.678Z,0.20
2022-10-02T11:27:39.862Z,0.10
2022-10-02T11:30:27.194Z,0.50
2022-10-02T11:33:30.161Z,0.20
2022-10-02T11:36:42.592Z,0.40
2022-10-02T11:39:28.722Z,0.77
2022-10-02T11:44:50.425Z,0.75
2022-10-02T11:47:36.384Z,0.30
2022-10-02T11:50:32.916Z,0.60
2022-10-02T11:55:46.236Z,0.82
2022-10-02T11:58:46.387Z,0.40
2022-10-02T12:02:06.069Z,0.45
2022-10-02T12:04:55.063Z,0.63
2022-10-02T12:07:58.372Z,0.60
2022-10-02T12:10:44.172Z,0.50
2022-10-02T12:13:43.389Z,0.75
2022-10-02T12:16:55.101Z,1.08
2022-10-02T12:20:12.669Z,0.30
2022-10-02T12:26:54.798Z,0.68
2022-10-02T12:29:54.616Z,0.47
2022-10-02T12:32:56.667Z,0.35
2022-10-02T12:35:40.006Z,0.50
2022-10-02T12:38:34.367Z,0.65
2022-10-02T12:41:20.522Z,0.80
2022-10-02T12:44:26.143Z,0.90
2022-10-02T12:47:14.700Z,0.50
2022-10-02T12:49:59.658Z,0.70
2022-10-02T12:52:55.274Z,1.08
2022-10-02T12:55:47.107Z,0.80
2022-10-02T12:58:35.827Z,0.73
2022-10-02T13:01:30.929Z,0.60
2022-10-02T13:04:05.850Z,0.20
2022-10-02T13:07:01.741Z,0.50
2022-10-02T13:09:42.425Z,0.05
2022-10-02T13:12:22.116Z,0.30
2022-10-02T13:15:28.038Z,0.10
2022-10-02T13:18:17.785Z,0.10
2022-10-02T13:21:30.196Z,0.38
2022-10-02T13:24:43.989Z,0.20
2022-10-02T13:27:22.346Z,0.50
2022-10-02T13:30:19.129Z,0.40
2022-10-02T13:33:06.089Z,0.22
2022-10-02T13:35:51.243Z,0.20
2022-10-02T13:38:30.112Z,0.20
2022-10-02T13:41:06.692Z,0.20
2022-10-02T13:43:50.032Z,0.20
2022-10-02T13:46:54.349Z,0.22
2022-10-02T13:49:31.240Z,0.40
2022-10-02T13:52:07.501Z,0.63
2022-10-02T13:54:41.747Z,0.77
2022-10-02T13:57:16.243Z,0.60
2022-10-02T13:59:55.934Z,0.28
2022-10-02T14:02:47.030Z,0.30
2022-10-02T14:05:26.761Z,0.63
2022-10-02T14:08:24.281Z,0.30
2022-10-02T14:11:07.284Z,0.57
2022-10-02T14:14:03.203Z,0.30
2022-10-02T14:16:54.703Z,0.82
2022-10-02T14:19:55.932Z,0.52
2022-10-02T14:22:35.291Z,0.52
2022-10-02T14:25:13.232Z,1.30
2022-10-02T14:27:52.893Z,0.80
2022-10-02T14:30:29.048Z,0.60
2022-10-02T14:33:28.019Z,0.20
2022-10-02T14:36:08.983Z,0.65
2022-10-02T14:39:01.728Z,0.40
2022-10-02T14:41:58.906Z,0.60
2022-10-02T14:44:47.695Z,0.22
2022-10-02T14:47:33.921Z,0.40
2022-10-02T14:50:16.752Z,0.80
2022-10-02T14:53:23.615Z,0.40
2022-10-02T14:56:13.888Z,0.85
2022-10-02T14:59:10.960Z,0.40
2022-10-02T15:01:46.981Z,1.00
2022-10-02T15:04:52.820Z,0.57
2022-10-02T15:07:26.104Z,0.52
2022-10-02T15:09:58.358Z,0.70
2022-10-02T15:12:43.634Z,0.80
2022-10-02T15:15:27.384Z,0.70
2022-10-02T15:18:13.123Z,0.82
2022-10-02T15:21:00.776Z,0.80
2022-10-02T15:23:42.741Z,1.17
2022-10-02T15:26:49.320Z,0.80
2022-10-02T15:29:59.088Z,0.82
2022-10-02T15:32:35.496Z,0.80
2022-10-02T15:35:21.261Z,0.45
2022-10-02T15:38:26.732Z,0.73
2022-10-02T15:41:12.420Z,0.75
2022-10-02T15:44:00.752Z,0.98
2022-10-02T15:46:55.645Z,0.88
2022-10-02T15:49:54.290Z,0.98
2022-10-02T15:52:31.040Z,2.88
2022-10-02T15:55:26.526Z,1.60
2022-10-02T15:58:24.496Z,1.30
2022-10-02T16:01:01.292Z,0.80
2022-10-02T16:03:52.184Z,0.85
2022-10-02T16:06:37.496Z,0.60
2022-10-02T16:09:34.308Z,5.28
2022-10-02T16:12:22.326Z,6.13
2022-10-02T16:15:13.225Z,2.40
2022-10-02T16:17:52.368Z,0.90
2022-10-02T16:20:29.290Z,4.32
2022-10-02T16:23:18.391Z,1.10
2022-10-02T16:26:05.817Z,0.80
2022-10-02T16:29:00.739Z,1.45
2022-10-02T16:31:52.604Z,1.17
2022-10-02T16:34:41.219Z,1.33
2022-10-02T16:37:18.116Z,1.02
2022-10-02T16:40:29.058Z,0.80
2022-10-02T16:43:36.182Z,1.00
2022-10-02T16:48:46.790Z,0.88
2022-10-02T16:51:39.147Z,0.70
2022-10-02T16:54:16.689Z,0.65
2022-10-02T16:56:51.445Z,1.13
2022-10-02T16:59:40.518Z,1.17
2022-10-02T17:02:19.998Z,1.10
2022-10-02T17:05:02.755Z,0.70
2022-10-02T17:07:51.339Z,2.05
2022-10-02T17:10:33.971Z,2.05
2022-10-02T17:13:16.166Z,2.15
2022-10-02T17:15:51.641Z,2.65
2022-10-02T17:19:00.097Z,0.73
2022-10-02T17:22:09.187Z,0.47
2022-10-02T17:25:14.814Z,1.00
2022-10-02T17:28:06.374Z,0.20
2022-10-02T17:31:07.722Z,0.52
2022-10-02T17:33:56.014Z,0.50
2022-10-02T17:36:37.342Z,0.47
2022-10-02T17:39:32.476Z,0.40
2022-10-02T17:42:41.407Z,0.88
2022-10-02T17:45:38.270Z,0.60
2022-10-02T17:48:35.846Z,0.65
2022-10-02T17:51:53.220Z,0.30
2022-10-02T17:54:46.257Z,0.28
2022-10-02T17:57:34.875Z,0.55
2022-10-02T18:00:08.698Z,0.30
2022-10-02T18:02:57.882Z,0.32
2022-10-02T18:05:53.094Z,0.50
2022-10-02T18:08:42.813Z,0.25
2022-10-02T18:11:45.871Z,0.50
2022-10-02T18:14:28.537Z,0.47
2022-10-02T18:17:23.864Z,0.57
2022-10-02T18:19:56.192Z,0.88
2022-10-02T18:22:49.287Z,0.80
2022-10-02T18:25:29.937Z,1.13
2022-10-02T18:28:22.073Z,1.75
2022-10-02T18:30:58.874Z,0.77
2022-10-02T18:33:42.466Z,1.10
2022-10-02T18:36:34.299Z,1.10
2022-10-02T18:39:17.421Z,1.15
2022-10-02T18:42:01.570Z,1.02
2022-10-02T18:44:34.283Z,0.63
2022-10-02T18:47:46.086Z,0.73
2022-10-02T18:50:39.627Z,0.63
2022-10-02T18:53:28.796Z,1.30
2022-10-02T18:56:12.262Z,0.82
2022-10-02T18:59:15.590Z,0.90
2022-10-02T19:01:49.212Z,4.18
2022-10-02T19:04:38.901Z,2.03
2022-10-02T19:07:19.587Z,0.63
2022-10-02T19:09:52.230Z,0.68
2022-10-02T19:12:26.104Z,0.47
2022-10-02T19:14:56.807Z,0.38
2022-10-02T19:17:27.516Z,0.40
2022-10-02T19:19:58.231Z,0.60
2022-10-02T19:22:32.301Z,0.98
2022-10-02T19:25:16.451Z,0.70
2022-10-02T19:27:54.718Z,0.47
2022-10-02T19:30:26.558Z,0.60
2022-10-02T19:33:08.362Z,0.25
2022-10-02T19:35:43.005Z,0.30
2022-10-02T19:38:39.280Z,0.30
2022-10-02T19:41:14.983Z,0.35
2022-10-02T19:43:57.309Z,0.38
2022-10-02T19:46:54.070Z,0.38
2022-10-02T19:49:30.384Z,0.10
2022-10-02T19:51:58.457Z,0.25
2022-10-02T19:54:37.433Z,0.10
2022-10-02T19:57:14.921Z,0.15
2022-10-02T19:59:52.306Z,0.50
2022-10-02T20:02:25.571Z,0.20
2022-10-02T20:04:57.208Z,0.10
2022-10-02T20:07:28.638Z,0.17
2022-10-02T20:10:00.492Z,0.32
2022-10-02T20:12:40.829Z,0.30
2022-10-02T20:15:39.915Z,0.25
2022-10-02T20:18:08.342Z,0.13
2022-10-02T20:20:37.833Z,0.20
2022-10-02T20:23:11.066Z,0.20
2022-10-02T20:25:48.229Z,0.40
2022-10-02T20:28:26.134Z,0.43
2022-10-02T20:31:10.470Z,0.10
2022-10-02T20:33:43.911Z,0.20
2022-10-02T20:36:26.991Z,0.05
2022-10-02T20:39:00.104Z,0.20
2022-10-02T20:41:48.002Z,0.50
2022-10-02T20:44:16.023Z,0.40
2022-10-02T20:46:55.498Z,0.25
2022-10-02T20:49:40.389Z,0.10
2022-10-02T20:52:42.040Z,0.22
2022-10-02T20:55:22.111Z,0.13
2022-10-02T20:58:08.462Z,0.28
2022-10-02T21:01:07.289Z,0.30
2022-10-02T21:04:07.207Z,0.30
2022-10-02T21:06:49.838Z,0.20
2022-10-02T21:10:11.893Z,0.10
2022-10-02T21:12:51.450Z,0.20
2022-10-02T21:15:18.970Z,0.32
2022-10-02T21:18:11.324Z,0.50
2022-10-02T21:21:10.091Z,0.30
2022-10-02T21:23:59.679Z,0.50
2022-10-02T21:27:01.986Z,0.32
2022-10-02T21:29:41.580Z,0.43
2022-10-02T21:32:30.051Z,0.47
2022-10-02T21:35:34.218Z,0.40
2022-10-02T21:38:32.936Z,0.45
2022-10-02T21:41:31.072Z,0.82
2022-10-02T21:44:04.948Z,0.28
2022-10-02T21:46:35.908Z,0.30
2022-10-02T21:49:16.799Z,0.28
2022-10-02T21:51:47.665Z,0.10
2022-10-02T21:54:44.111Z,0.20
2022-10-02T21:57:14.742Z,0.20
2022-10-02T22:00:07.964Z,0.65
2022-10-02T22:03:04.424Z,0.10
2022-10-02T22:05:51.346Z,0.20
2022-10-02T22:08:46.392Z,0.40
2022-10-02T22:11:14.070Z,0.20
2022-10-02T22:13:46.295Z,0.22
2022-10-02T22:16:59.734Z,0.40
2022-10-02T22:19:42.578Z,0.10
2022-10-02T22:22:12.920Z,0.30
2022-10-02T22:24:49.387Z,0.30
2022-10-02T22:27:54.629Z,0.40
2022-10-02T22:30:26.556Z,0.32
2022-10-02T22:33:12.525Z,0.82
2022-10-02T22:36:07.361Z,0.45
2022-10-02T22:38:36.622Z,0.20
2022-10-02T22:41:16.422Z,0.10
2022-10-02T22:43:55.742Z,0.32
2022-10-02T22:47:01.222Z,0.30
2022-10-02T22:49:33.057Z,0.32
2022-10-02T22:52:03.163Z,0.60
2022-10-02T22:54:57.978Z,0.20
2022-10-02T22:57:37.646Z,0.35
2022-10-02T23:00:17.098Z,0.47
2022-10-02T23:02:50.639Z,0.40
2022-10-02T23:05:41.649Z,0.30
2022-10-02T23:08:15.042Z,0.40
2022-10-02T23:10:59.564Z,0.10
2022-10-02T23:13:41.859Z,0.35
2022-10-02T23:16:22.269Z,0.70
2022-10-02T23:19:00.964Z,0.47
2022-10-02T23:21:45.962Z,0.40
2022-10-02T23:24:43.895Z,0.27
2022-10-02T23:27:20.453Z,0.30
2022-10-02T23:29:53.736Z,0.52
2022-10-02T23:32:47.687Z,0.28
2022-10-02T23:35:39.057Z,0.32
2022-10-02T23:38:30.807Z,0.63
2022-10-02T23:41:23.149Z,0.63
2022-10-02T23:44:06.189Z,0.50
2022-10-02T23:46:57.955Z,0.20
2022-10-02T23:49:35.167Z,0.40
2022-10-02T23:52:28.220Z,0.52
2022-10-02T23:55:14.231Z,0.65
2022-10-02T23:57:53.922Z,0.28
